Time;durP1;ratioP1;P1;durP2;ratioP2;P2;SDS_P1;SDS_P2;PMS_P1;PMS_P2;Temp;Humidity;BMP_temperature;BMP_pressure;BME280_temperature;BME280_humidity;BME280_pressure;Samples;Min_cycle;Max_cycle;Signal;HPM_P1;HPM_P2
2024/02/24 00:02:13;;;;;;;15.18;7.82;;;;;;;;;;10329986;28;20034;-69
2024/02/24 00:07:13;;;;;;;10.65;6.55;;;;;;;;;;10329827;28;20482;-70
2024/02/24 00:12:14;;;;;;;8.98;6.30;;;;;;;;;;10330632;28;20401;-70
2024/02/24 00:17:14;;;;;;;10.45;6.03;;;;;;;;;;10329633;28;20614;-68
2024/02/24 00:22:15;;;;;;;13.43;6.47;;;;;;;;;;10330577;28;20023;-67
2024/02/24 00:27:15;;;;;;;10.90;5.63;;;;;;;;;;10330042;28;20493;-69
2024/02/24 00:32:16;;;;;;;12.65;5.72;;;;;;;;;;10328068;28;20033;-69
2024/02/24 00:37:17;;;;;;;10.20;5.68;;;;;;;;;;10328496;28;20034;-66
2024/02/24 00:42:18;;;;;;;7.97;5.50;;;;;;;;;;10327662;28;20433;-65
2024/02/24 00:47:18;;;;;;;11.32;5.65;;;;;;;;;;10328998;28;20037;-66
2024/02/24 00:52:19;;;;;;;7.65;5.05;;;;;;;;;;10329592;28;20034;-68
2024/02/24 00:57:19;;;;;;;7.07;4.95;;;;;;;;;;10329109;28;20042;-67
2024/02/24 01:02:20;;;;;;;5.88;4.60;;;;;;;;;;10327929;28;20169;-66
2024/02/24 01:07:21;;;;;;;7.57;5.13;;;;;;;;;;10327106;28;20100;-66
2024/02/24 01:12:23;;;;;;;7.85;4.78;;;;;;;;;;10326194;28;20041;-67
2024/02/24 01:17:23;;;;;;;11.43;4.80;;;;;;;;;;10327018;28;20042;-66
2024/02/24 01:22:24;;;;;;;6.25;4.47;;;;;;;;;;10326719;28;20039;-77
2024/02/24 01:27:25;;;;;;;7.45;4.65;;;;;;;;;;10326492;28;20109;-78
2024/02/24 01:32:25;;;;;;;6.28;4.40;;;;;;;;;;10324738;28;20037;-78
2024/02/24 01:37:26;;;;;;;6.22;4.03;;;;;;;;;;10326610;28;20022;-75
2024/02/24 01:42:27;;;;;;;6.95;4.15;;;;;;;;;;10325979;28;20018;-72
2024/02/24 01:47:28;;;;;;;8.02;4.60;;;;;;;;;;10326042;28;20026;-67
2024/02/24 01:52:29;;;;;;;4.53;3.70;;;;;;;;;;10326210;28;20065;-68
2024/02/24 01:57:37;;;;;;;7.78;3.78;;;;;;;;;;10325597;28;20037;-69
2024/02/24 02:02:39;;;;;;;10.20;4.15;;;;;;;;;;10285487;28;1120569;-68
2024/02/24 02:07:40;;;;;;;9.27;4.40;;;;;;;;;;10325981;28;20125;-69
2024/02/24 02:12:40;;;;;;;4.20;3.67;;;;;;;;;;10326718;28;20092;-69
2024/02/24 02:17:41;;;;;;;6.55;4.03;;;;;;;;;;10327283;28;20030;-68
2024/02/24 02:22:42;;;;;;;4.32;3.80;;;;;;;;;;10327088;28;20343;-69
2024/02/24 02:27:42;;;;;;;3.97;3.38;;;;;;;;;;10309496;28;20040;-68
2024/02/24 02:32:43;;;;;;;5.25;3.55;;;;;;;;;;10326122;28;20033;-69
2024/02/24 02:37:43;;;;;;;5.78;4.03;;;;;;;;;;10325974;28;20034;-68
2024/02/24 02:42:45;;;;;;;3.83;3.35;;;;;;;;;;10326972;28;20228;-71
2024/02/24 02:47:45;;;;;;;5.57;3.38;;;;;;;;;;10331779;28;20072;-75
2024/02/24 02:52:49;;;;;;;5.13;3.50;;;;;;;;;;10334235;28;20042;-76
2024/02/24 02:57:50;;;;;;;4.63;3.58;;;;;;;;;;10334373;28;20101;-78
2024/02/24 03:02:51;;;;;;;4.43;3.50;;;;;;;;;;10334390;28;20141;-66
2024/02/24 03:07:51;;;;;;;6.90;3.05;;;;;;;;;;10334566;28;20026;-67
2024/02/24 03:12:52;;;;;;;3.72;3.10;;;;;;;;;;10333889;28;20090;-66
2024/02/24 03:17:52;;;;;;;4.72;3.13;;;;;;;;;;10333601;28;20030;-67
2024/02/24 03:22:53;;;;;;;6.18;3.17;;;;;;;;;;10333094;28;20394;-67
2024/02/24 03:27:54;;;;;;;3.85;3.05;;;;;;;;;;10333171;28;20027;-67
2024/02/24 03:32:55;;;;;;;3.05;2.75;;;;;;;;;;10333607;28;20042;-68
2024/02/24 03:37:56;;;;;;;5.15;3.33;;;;;;;;;;10333192;28;20393;-67
2024/02/24 03:42:58;;;;;;;6.72;3.70;;;;;;;;;;10332785;28;20452;-68
2024/02/24 03:47:59;;;;;;;4.03;3.13;;;;;;;;;;10333492;28;20026;-72
2024/02/24 03:53:00;;;;;;;3.10;2.75;;;;;;;;;;10332623;28;20022;-68
2024/02/24 03:58:01;;;;;;;4.20;3.00;;;;;;;;;;10332231;28;20038;-67
2024/02/24 04:03:02;;;;;;;4.75;3.25;;;;;;;;;;10331872;28;20051;-65
2024/02/24 04:08:03;;;;;;;3.65;2.97;;;;;;;;;;10333012;28;20027;-66
2024/02/24 04:13:04;;;;;;;3.90;3.10;;;;;;;;;;10331245;28;20397;-68
2024/02/24 04:18:04;;;;;;;3.05;2.75;;;;;;;;;;10331003;28;20041;-68
2024/02/24 04:23:05;;;;;;;3.58;2.70;;;;;;;;;;10330722;28;20122;-68
2024/02/24 04:28:06;;;;;;;4.20;2.80;;;;;;;;;;10330819;28;20026;-68
2024/02/24 04:33:06;;;;;;;10.15;3.00;;;;;;;;;;10330570;28;20026;-69
2024/02/24 04:38:07;;;;;;;3.38;2.90;;;;;;;;;;10330620;28;20026;-69
2024/02/24 04:43:07;;;;;;;4.50;3.30;;;;;;;;;;10330717;28;20034;-67
2024/02/24 04:48:08;;;;;;;10.05;2.83;;;;;;;;;;10330261;28;20034;-67
2024/02/24 04:53:09;;;;;;;4.28;3.03;;;;;;;;;;10330088;28;20178;-67
2024/02/24 04:58:09;;;;;;;4.72;3.00;;;;;;;;;;10329882;28;20018;-67
2024/02/24 05:03:10;;;;;;;4.95;2.72;;;;;;;;;;10329230;28;20061;-75
2024/02/24 05:08:10;;;;;;;3.22;2.92;;;;;;;;;;10328963;28;20030;-72
2024/02/24 05:13:11;;;;;;;4.35;2.50;;;;;;;;;;10330054;28;20034;-68
2024/02/24 05:18:12;;;;;;;3.95;2.75;;;;;;;;;;10329262;28;20026;-78
2024/02/24 05:23:12;;;;;;;5.28;2.72;;;;;;;;;;10329110;28;20026;-77
2024/02/24 05:28:13;;;;;;;3.10;2.80;;;;;;;;;;10328900;28;20351;-73
2024/02/24 05:33:14;;;;;;;5.03;2.75;;;;;;;;;;10328358;28;20085;-73
2024/02/24 05:38:15;;;;;;;2.80;2.60;;;;;;;;;;10329397;28;20033;-74
2024/02/24 05:43:16;;;;;;;4.50;2.60;;;;;;;;;;10328790;28;20493;-76
2024/02/24 05:48:16;;;;;;;2.92;2.53;;;;;;;;;;10328521;28;20030;-76
2024/02/24 05:53:17;;;;;;;2.60;2.38;;;;;;;;;;10328260;28;20026;-74
2024/02/24 05:58:17;;;;;;;4.68;2.67;;;;;;;;;;10327634;28;20023;-73
2024/02/24 06:03:23;;;;;;;3.05;2.75;;;;;;;;;;10327469;28;20588;-79
2024/02/24 06:08:24;;;;;;;3.78;2.60;;;;;;;;;;10327265;28;20106;-79
2024/02/24 06:13:25;;;;;;;4.95;2.38;;;;;;;;;;10327689;28;20153;-81
2024/02/24 06:18:26;;;;;;;2.63;2.25;;;;;;;;;;10327364;28;20057;-65
2024/02/24 06:23:27;;;;;;;2.45;2.25;;;;;;;;;;10327155;28;20050;-76
2024/02/24 06:28:27;;;;;;;4.55;2.40;;;;;;;;;;10326727;28;20115;-70
2024/02/24 06:33:28;;;;;;;2.25;2.05;;;;;;;;;;10326882;28;20022;-72
2024/02/24 06:38:29;;;;;;;2.90;2.30;;;;;;;;;;10326058;28;20029;-69
2024/02/24 06:43:29;;;;;;;4.10;2.60;;;;;;;;;;10326617;28;20041;-67
2024/02/24 06:48:30;;;;;;;3.60;2.13;;;;;;;;;;10326532;28;20030;-68
2024/02/24 06:53:30;;;;;;;2.35;2.10;;;;;;;;;;10326711;28;20045;-71
2024/02/24 06:58:33;;;;;;;4.53;2.40;;;;;;;;;;10325947;28;20117;-68
2024/02/24 07:03:34;;;;;;;3.47;2.50;;;;;;;;;;10326257;28;20050;-72
2024/02/24 07:08:35;;;;;;;2.88;2.33;;;;;;;;;;10326262;28;20045;-71
2024/02/24 07:13:36;;;;;;;3.10;2.58;;;;;;;;;;10325920;28;20027;-71
2024/02/24 07:18:37;;;;;;;2.38;1.95;;;;;;;;;;10326126;28;20109;-73
2024/02/24 07:23:38;;;;;;;7.20;2.30;;;;;;;;;;10326264;28;20121;-71
2024/02/24 07:28:40;;;;;;;2.88;2.28;;;;;;;;;;10325043;28;20114;-68
2024/02/24 07:33:40;;;;;;;2.78;2.25;;;;;;;;;;10329511;28;20038;-68
2024/02/24 07:38:41;;;;;;;2.88;2.58;;;;;;;;;;10332401;28;20063;-68
2024/02/24 07:43:41;;;;;;;2.83;2.50;;;;;;;;;;10332762;28;20088;-70
2024/02/24 07:48:42;;;;;;;2.30;2.08;;;;;;;;;;10332756;28;20026;-68
2024/02/24 07:53:43;;;;;;;2.80;2.22;;;;;;;;;;10332053;28;20390;-71
2024/02/24 07:58:43;;;;;;;2.65;2.03;;;;;;;;;;10331681;28;20034;-70
2024/02/24 08:03:44;;;;;;;2.17;1.98;;;;;;;;;;10330539;28;20413;-72
2024/02/24 08:08:45;;;;;;;2.10;1.90;;;;;;;;;;10331540;28;20097;-71
2024/02/24 08:13:46;;;;;;;2.13;1.95;;;;;;;;;;10330882;28;20026;-67
2024/02/24 08:18:47;;;;;;;2.35;2.17;;;;;;;;;;10331628;28;20042;-68
2024/02/24 08:23:47;;;;;;;2.42;2.22;;;;;;;;;;10330963;28;20026;-68
2024/02/24 08:28:48;;;;;;;3.05;2.10;;;;;;;;;;10331148;28;20037;-68
2024/02/24 08:33:48;;;;;;;2.40;2.20;;;;;;;;;;10331048;28;20203;-66
2024/02/24 08:38:49;;;;;;;3.15;2.25;;;;;;;;;;10330631;28;20367;-67
2024/02/24 08:43:50;;;;;;;2.42;2.17;;;;;;;;;;10329559;28;20533;-67
2024/02/24 08:48:50;;;;;;;2.67;2.40;;;;;;;;;;10330415;28;20022;-67
2024/02/24 08:53:51;;;;;;;2.65;2.28;;;;;;;;;;10330298;28;20096;-63
2024/02/24 08:58:52;;;;;;;2.80;2.10;;;;;;;;;;10330319;28;20414;-68
2024/02/24 09:03:52;;;;;;;2.35;2.10;;;;;;;;;;10329341;28;20046;-66
2024/02/24 09:08:53;;;;;;;1.67;1.58;;;;;;;;;;10330013;28;20023;-72
2024/02/24 09:13:54;;;;;;;2.20;2.00;;;;;;;;;;10328965;28;20493;-71
2024/02/24 09:18:54;;;;;;;3.17;2.20;;;;;;;;;;10328488;28;20038;-66
2024/02/24 09:23:55;;;;;;;5.40;2.00;;;;;;;;;;10329333;28;20038;-66
2024/02/24 09:28:55;;;;;;;2.67;2.25;;;;;;;;;;10328710;28;20026;-66
2024/02/24 09:33:56;;;;;;;2.28;2.08;;;;;;;;;;10328656;28;20034;-72
2024/02/24 09:38:57;;;;;;;2.45;1.90;;;;;;;;;;10328159;28;20034;-70
2024/02/24 09:43:58;;;;;;;5.10;2.03;;;;;;;;;;10328894;28;20035;-67
2024/02/24 09:48:59;;;;;;;10.05;3.08;;;;;;;;;;10327830;28;20030;-72
2024/02/24 09:54:01;;;;;;;6.57;5.32;;;;;;;;;;10326811;28;20026;-72
2024/02/24 09:59:03;;;;;;;11.60;7.22;;;;;;;;;;10327782;28;20038;-68
2024/02/24 10:04:03;;;;;;;12.05;6.30;;;;;;;;;;10325911;28;20050;-68
2024/02/24 10:09:04;;;;;;;13.75;8.10;;;;;;;;;;10327059;28;20076;-68
2024/02/24 10:14:05;;;;;;;18.55;7.55;;;;;;;;;;10326089;28;20458;-69
2024/02/24 10:19:06;;;;;;;10.20;7.28;;;;;;;;;;10326935;28;20066;-68
2024/02/24 10:24:07;;;;;;;12.40;7.22;;;;;;;;;;10326269;28;20085;-69
2024/02/24 10:29:08;;;;;;;9.35;6.97;;;;;;;;;;10326156;28;20026;-71
2024/02/24 10:34:08;;;;;;;6.78;5.45;;;;;;;;;;10326992;28;20029;-70
2024/02/24 10:39:10;;;;;;;10.40;5.20;;;;;;;;;;10324924;28;20022;-70
2024/02/24 10:44:13;;;;;;;7.63;4.70;;;;;;;;;;10326360;28;20034;-73
2024/02/24 10:49:14;;;;;;;9.13;4.82;;;;;;;;;;10326004;28;20062;-69
2024/02/24 10:54:21;;;;;;;8.25;4.10;;;;;;;;;;10325174;28;20505;-69
2024/02/24 10:59:29;;;;;;;9.82;4.13;;;;;;;;;;10325194;28;20294;-68
2024/02/24 11:04:38;;;;;;;9.45;3.50;;;;;;;;;;10325107;28;20085;-69
2024/02/24 11:09:39;;;;;;;5.45;2.92;;;;;;;;;;10332738;28;20393;-68
2024/02/24 11:14:47;;;;;;;11.32;3.60;;;;;;;;;;10333190;28;20026;-69
2024/02/24 11:19:48;;;;;;;4.53;3.28;;;;;;;;;;10332539;28;20501;-69
2024/02/24 11:25:05;;;;;;;9.90;3.47;;;;;;;;;;10332748;28;20029;-68
2024/02/24 11:30:33;;;;;;;9.10;3.72;;;;;;;;;;10332528;28;20537;-71
2024/02/24 11:35:34;;;;;;;16.05;4.13;;;;;;;;;;10333116;28;20030;-68
2024/02/24 11:40:36;;;;;;;8.77;3.42;;;;;;;;;;10330991;28;20485;-64
2024/02/24 11:45:37;;;;;;;12.63;4.55;;;;;;;;;;10331894;28;20398;-64
2024/02/24 11:50:37;;;;;;;22.88;3.58;;;;;;;;;;10332334;28;20037;-60
2024/02/24 11:55:38;;;;;;;8.38;3.10;;;;;;;;;;10331704;28;20022;-59
2024/02/24 12:00:40;;;;;;;7.88;3.42;;;;;;;;;;10331905;28;20030;-63
2024/02/24 12:05:44;;;;;;;6.35;3.10;;;;;;;;;;10331984;28;20506;-61
2024/02/24 12:10:45;;;;;;;9.23;2.92;;;;;;;;;;10331810;28;20058;-61
2024/02/24 12:15:46;;;;;;;8.65;3.38;;;;;;;;;;10332016;28;20057;-60
2024/02/24 12:20:48;;;;;;;8.10;3.40;;;;;;;;;;10331190;28;20403;-60
2024/02/24 12:25:49;;;;;;;13.63;2.85;;;;;;;;;;10331324;28;20079;-60
2024/02/24 12:30:51;;;;;;;6.25;2.65;;;;;;;;;;10329972;28;20088;-61
2024/02/24 12:35:53;;;;;;;8.30;2.33;;;;;;;;;;10325024;28;20042;-59
2024/02/24 12:40:57;;;;;;;5.55;2.28;;;;;;;;;;10331286;28;20046;-59
2024/02/24 12:45:58;;;;;;;4.07;2.20;;;;;;;;;;10331048;28;20027;-60
2024/02/24 12:50:59;;;;;;;6.95;2.58;;;;;;;;;;10329913;28;20441;-61
2024/02/24 12:56:01;;;;;;;3.85;2.08;;;;;;;;;;10330044;28;20620;-62
2024/02/24 13:01:02;;;;;;;6.18;2.17;;;;;;;;;;10329961;28;20033;-61
2024/02/24 13:06:02;;;;;;;13.82;2.35;;;;;;;;;;10330069;28;20050;-60
2024/02/24 13:11:03;;;;;;;17.83;2.65;;;;;;;;;;10329291;28;20389;-60
2024/02/24 13:16:04;;;;;;;8.65;2.95;;;;;;;;;;10329071;28;20046;-60
2024/02/24 13:21:05;;;;;;;4.05;2.30;;;;;;;;;;10327879;28;20037;-60
2024/02/24 13:26:05;;;;;;;6.10;1.83;;;;;;;;;;10329148;28;20026;-60
2024/02/24 13:31:06;;;;;;;6.63;2.10;;;;;;;;;;10326862;28;20065;-60
2024/02/24 13:36:07;;;;;;;7.72;2.13;;;;;;;;;;10327002;28;20022;-60
2024/02/24 13:41:07;;;;;;;6.93;2.13;;;;;;;;;;10328383;28;20030;-60
2024/02/24 13:46:08;;;;;;;9.10;2.60;;;;;;;;;;10327321;28;20034;-60
2024/02/24 13:51:09;;;;;;;9.60;2.40;;;;;;;;;;10328429;28;20470;-60
2024/02/24 13:56:09;;;;;;;7.47;3.00;;;;;;;;;;10328346;28;20033;-60
2024/02/24 14:01:10;;;;;;;9.45;3.15;;;;;;;;;;10327699;28;20508;-60
2024/02/24 14:06:10;;;;;;;4.40;2.03;;;;;;;;;;10327142;28;20722;-60
2024/02/24 14:11:11;;;;;;;5.57;2.00;;;;;;;;;;10326449;28;20034;-60
2024/02/24 14:16:12;;;;;;;5.93;2.47;;;;;;;;;;10326052;28;20173;-60
2024/02/24 14:21:12;;;;;;;7.75;2.50;;;;;;;;;;10326848;28;20050;-61
2024/02/24 14:26:13;;;;;;;3.88;2.10;;;;;;;;;;10326520;28;20029;-60
2024/02/24 14:31:15;;;;;;;3.70;2.22;;;;;;;;;;10327559;28;20041;-61
2024/02/24 14:36:15;;;;;;;5.00;2.15;;;;;;;;;;10327473;28;20031;-60
2024/02/24 14:41:17;;;;;;;5.00;2.00;;;;;;;;;;10330241;28;20030;-61
2024/02/24 14:46:17;;;;;;;3.83;2.17;;;;;;;;;;10335068;28;20034;-60
2024/02/24 14:51:18;;;;;;;4.82;1.80;;;;;;;;;;10334743;28;20376;-60
2024/02/24 14:56:18;;;;;;;4.47;2.33;;;;;;;;;;10332784;28;20074;-60
2024/02/24 15:01:20;;;;;;;6.68;2.40;;;;;;;;;;10334172;28;20034;-60
2024/02/24 15:06:20;;;;;;;3.42;1.83;;;;;;;;;;10332287;28;20047;-61
2024/02/24 15:11:21;;;;;;;4.40;1.98;;;;;;;;;;10332585;28;20170;-61
2024/02/24 15:16:22;;;;;;;2.08;1.88;;;;;;;;;;10332722;28;20038;-60
2024/02/24 15:21:22;;;;;;;4.65;2.15;;;;;;;;;;10332963;28;20030;-64
2024/02/24 15:26:23;;;;;;;5.60;2.00;;;;;;;;;;10332360;28;20493;-61
2024/02/24 15:31:25;;;;;;;3.47;1.92;;;;;;;;;;10333075;28;20034;-60
2024/02/24 15:36:26;;;;;;;4.78;2.13;;;;;;;;;;10331081;28;20417;-60
2024/02/24 15:41:27;;;;;;;2.58;1.80;;;;;;;;;;10330996;28;20033;-61
2024/02/24 15:46:28;;;;;;;4.30;1.80;;;;;;;;;;10330015;28;20026;-60
2024/02/24 15:51:28;;;;;;;2.78;2.15;;;;;;;;;;10329865;28;20593;-62
2024/02/24 15:56:30;;;;;;;4.28;2.15;;;;;;;;;;10331117;28;20076;-61
2024/02/24 16:01:31;;;;;;;3.15;1.88;;;;;;;;;;10330941;28;20027;-62
2024/02/24 16:06:31;;;;;;;2.70;1.90;;;;;;;;;;10330273;28;20053;-62
2024/02/24 16:11:32;;;;;;;3.30;1.90;;;;;;;;;;10330636;28;20038;-62
2024/02/24 16:16:32;;;;;;;2.78;1.67;;;;;;;;;;10329195;28;20540;-61
2024/02/24 16:21:37;;;;;;;3.17;1.90;;;;;;;;;;10328951;28;20474;-61
2024/02/24 16:26:38;;;;;;;4.07;2.10;;;;;;;;;;10327715;28;20439;-60
2024/02/24 16:31:38;;;;;;;3.47;2.38;;;;;;;;;;10329163;28;20218;-60
2024/02/24 16:36:39;;;;;;;4.65;2.30;;;;;;;;;;10329849;28;20023;-61
2024/02/24 16:41:40;;;;;;;3.13;1.80;;;;;;;;;;10330222;28;20185;-60
2024/02/24 16:46:42;;;;;;;5.22;2.35;;;;;;;;;;10330086;28;20381;-61
2024/02/24 16:51:43;;;;;;;6.47;2.55;;;;;;;;;;10329873;28;20409;-60
2024/02/24 16:56:44;;;;;;;5.72;2.15;;;;;;;;;;10329287;28;20031;-61
2024/02/24 17:01:44;;;;;;;2.58;1.90;;;;;;;;;;10328647;28;20238;-60
2024/02/24 17:06:45;;;;;;;2.65;2.08;;;;;;;;;;10342059;23;20498;-51
2024/02/24 17:11:45;;;;;;;4.25;2.50;;;;;;;;;;10333656;28;20030;-55
2024/02/24 17:16:46;;;;;;;5.10;2.38;;;;;;;;;;10328250;28;20045;-53
2024/02/24 17:21:47;;;;;;;11.57;2.42;;;;;;;;;;10328458;28;20506;-58
2024/02/24 17:26:47;;;;;;;5.00;2.05;;;;;;;;;;10328636;28;20030;-58
2024/02/24 17:31:48;;;;;;;3.42;2.28;;;;;;;;;;10328833;28;20037;-57
2024/02/24 17:36:49;;;;;;;5.47;2.55;;;;;;;;;;10328211;28;20065;-57
2024/02/24 17:41:49;;;;;;;8.35;2.70;;;;;;;;;;10327276;28;20041;-54
2024/02/24 17:46:50;;;;;;;7.10;2.55;;;;;;;;;;10326876;28;20451;-50
2024/02/24 17:51:51;;;;;;;7.18;3.10;;;;;;;;;;10326407;28;20359;-51
2024/02/24 17:56:53;;;;;;;4.13;2.75;;;;;;;;;;10326995;28;20026;-53
2024/02/24 18:01:54;;;;;;;6.22;3.03;;;;;;;;;;10326704;28;20035;-52
2024/02/24 18:06:54;;;;;;;10.82;3.05;;;;;;;;;;10326989;28;20054;-52
2024/02/24 18:11:55;;;;;;;10.20;2.75;;;;;;;;;;10326193;28;20394;-54
2024/02/24 18:16:55;;;;;;;16.80;3.30;;;;;;;;;;10325764;28;20478;-53
2024/02/24 18:21:56;;;;;;;8.48;2.63;;;;;;;;;;10324337;28;20394;-55
2024/02/24 18:26:57;;;;;;;8.10;3.10;;;;;;;;;;10324347;28;20034;-50
2024/02/24 18:31:57;;;;;;;7.80;2.78;;;;;;;;;;10325382;28;20030;-53
2024/02/24 18:36:58;;;;;;;6.15;2.78;;;;;;;;;;10325100;28;20437;-54
2024/02/24 18:41:59;;;;;;;16.40;3.10;;;;;;;;;;10325686;28;20049;-54
2024/02/24 18:47:01;;;;;;;6.13;2.50;;;;;;;;;;10326751;28;20034;-53
2024/02/24 18:52:02;;;;;;;6.53;2.88;;;;;;;;;;10325697;28;20034;-55
2024/02/24 18:57:03;;;;;;;9.32;3.45;;;;;;;;;;10325996;28;20047;-51
2024/02/24 19:02:04;;;;;;;5.45;2.47;;;;;;;;;;10325725;28;20482;-57
2024/02/24 19:07:04;;;;;;;7.45;2.90;;;;;;;;;;10324609;28;20057;-51
2024/02/24 19:12:06;;;;;;;5.57;2.58;;;;;;;;;;10325093;28;20041;-56
2024/02/24 19:17:06;;;;;;;5.15;3.00;;;;;;;;;;10325514;28;20057;-54
2024/02/24 19:22:07;;;;;;;5.75;2.70;;;;;;;;;;10325269;28;20041;-52
2024/02/24 19:27:07;;;;;;;9.20;2.70;;;;;;;;;;10326729;28;20433;-52
2024/02/24 19:32:08;;;;;;;4.60;2.40;;;;;;;;;;10332016;28;20516;-52
2024/02/24 19:37:08;;;;;;;4.53;2.55;;;;;;;;;;10333784;28;20028;-51
2024/02/24 19:42:09;;;;;;;7.93;3.10;;;;;;;;;;10332422;28;20470;-52
2024/02/24 19:47:12;;;;;;;6.68;2.65;;;;;;;;;;10332511;28;20046;-53
2024/02/24 19:52:14;;;;;;;6.10;3.08;;;;;;;;;;10331892;28;20038;-52
2024/02/24 19:57:14;;;;;;;3.15;2.85;;;;;;;;;;10332405;28;20027;-53
2024/02/24 20:02:15;;;;;;;2.58;2.33;;;;;;;;;;10331968;28;20386;-52
2024/02/24 20:07:16;;;;;;;8.43;3.00;;;;;;;;;;10331075;28;20053;-52
2024/02/24 20:12:16;;;;;;;6.38;3.15;;;;;;;;;;10331169;28;20038;-54
2024/02/24 20:17:17;;;;;;;6.50;3.55;;;;;;;;;;10331564;28;20046;-54
2024/02/24 20:22:18;;;;;;;4.05;2.55;;;;;;;;;;10331449;28;20022;-52
2024/02/24 20:27:18;;;;;;;7.68;2.70;;;;;;;;;;10331285;28;20429;-52
2024/02/24 20:32:19;;;;;;;5.75;2.78;;;;;;;;;;10330335;28;20034;-51
2024/02/24 20:37:19;;;;;;;8.93;2.78;;;;;;;;;;10330399;28;20061;-53
2024/02/24 20:42:20;;;;;;;3.60;2.50;;;;;;;;;;10329620;28;20030;-52
2024/02/24 20:47:21;;;;;;;3.13;2.45;;;;;;;;;;10330698;28;20166;-53
2024/02/24 20:52:21;;;;;;;3.13;2.22;;;;;;;;;;10330700;28;20034;-56
2024/02/24 20:57:22;;;;;;;6.30;2.78;;;;;;;;;;10330434;28;20481;-52
2024/02/24 21:02:23;;;;;;;7.72;2.63;;;;;;;;;;10330202;28;20037;-52
2024/02/24 21:07:24;;;;;;;3.13;2.45;;;;;;;;;;10328124;28;20466;-52
2024/02/24 21:12:25;;;;;;;4.70;2.80;;;;;;;;;;10329433;28;20046;-52
2024/02/24 21:17:25;;;;;;;4.13;2.40;;;;;;;;;;10328776;28;20470;-54
2024/02/24 21:22:26;;;;;;;3.13;2.58;;;;;;;;;;10328929;28;20389;-52
2024/02/24 21:27:26;;;;;;;9.52;2.72;;;;;;;;;;10328270;28;20030;-52
2024/02/24 21:32:27;;;;;;;3.13;2.38;;;;;;;;;;10328724;28;20030;-53
2024/02/24 21:37:28;;;;;;;2.63;2.28;;;;;;;;;;10328058;28;20167;-51
2024/02/24 21:42:28;;;;;;;3.25;2.70;;;;;;;;;;10327708;28;20037;-52
2024/02/24 21:47:29;;;;;;;3.13;2.25;;;;;;;;;;10328317;28;20026;-52
2024/02/24 21:52:29;;;;;;;4.03;2.60;;;;;;;;;;10327152;28;20458;-58
2024/02/24 21:57:31;;;;;;;4.05;2.60;;;;;;;;;;10326681;28;20472;-52
2024/02/24 22:02:32;;;;;;;6.07;2.47;;;;;;;;;;10327392;28;20033;-54
2024/02/24 22:07:33;;;;;;;7.80;2.67;;;;;;;;;;10326572;28;20059;-55
2024/02/24 22:12:33;;;;;;;6.70;2.92;;;;;;;;;;10325131;28;20038;-52
2024/02/24 22:17:34;;;;;;;3.33;2.40;;;;;;;;;;10326669;28;20037;-52
2024/02/24 22:22:34;;;;;;;3.22;2.50;;;;;;;;;;10327238;28;20026;-53
2024/02/24 22:27:36;;;;;;;3.95;2.72;;;;;;;;;;10326885;28;20190;-53
2024/02/24 22:32:37;;;;;;;4.80;2.45;;;;;;;;;;10326580;28;20030;-52
2024/02/24 22:37:38;;;;;;;5.47;2.72;;;;;;;;;;10326180;28;20029;-52
2024/02/24 22:42:38;;;;;;;3.83;2.70;;;;;;;;;;10326068;28;20053;-50
2024/02/24 22:47:39;;;;;;;5.22;2.55;;;;;;;;;;10326407;28;20026;-51
2024/02/24 22:52:40;;;;;;;2.75;2.42;;;;;;;;;;10326595;28;20022;-52
2024/02/24 22:57:40;;;;;;;4.72;2.60;;;;;;;;;;10325597;28;20598;-55
2024/02/24 23:02:41;;;;;;;3.50;2.28;;;;;;;;;;10327915;28;20037;-62
2024/02/24 23:07:42;;;;;;;2.60;2.00;;;;;;;;;;10333793;28;20402;-57
2024/02/24 23:12:42;;;;;;;2.67;2.35;;;;;;;;;;10333423;28;20113;-54
2024/02/24 23:17:43;;;;;;;3.58;2.47;;;;;;;;;;10333819;28;20026;-55
2024/02/24 23:22:44;;;;;;;4.43;1.95;;;;;;;;;;10332143;28;20207;-54
2024/02/24 23:27:44;;;;;;;3.75;2.60;;;;;;;;;;10332293;28;20026;-54
2024/02/24 23:32:45;;;;;;;3.40;2.10;;;;;;;;;;10331719;28;20493;-50
2024/02/24 23:37:45;;;;;;;5.30;2.63;;;;;;;;;;10333545;28;20532;-57
2024/02/24 23:42:47;;;;;;;3.45;2.40;;;;;;;;;;10330188;28;20030;-61
2024/02/24 23:47:48;;;;;;;5.80;2.60;;;;;;;;;;10332565;28;20030;-55
2024/02/24 23:52:48;;;;;;;4.00;2.20;;;;;;;;;;10332060;28;20478;-58
2024/02/24 23:57:49;;;;;;;2.78;2.35;;;;;;;;;;10331590;28;20023;-55
